sensor_id;sensor_type;location;lat;lon;timestamp;P1;durP1;ratioP1;P2;durP2;ratioP2
46717;SDS011;32448;44.960;-0.698;2023-01-19T00:01:34;9.38;;;2.72;;
46717;SDS011;32448;44.960;-0.698;2023-01-19T00:04:01;9.65;;;2.30;;
46717;SDS011;32448;44.960;-0.698;2023-01-19T00:06:29;8.95;;;1.85;;
46717;SDS011;32448;44.960;-0.698;2023-01-19T00:08:57;7.10;;;2.17;;
46717;SDS011;32448;44.960;-0.698;2023-01-19T00:11:25;7.03;;;1.42;;
46717;SDS011;32448;44.960;-0.698;2023-01-19T00:13:52;7.43;;;1.77;;
46717;SDS011;32448;44.960;-0.698;2023-01-19T00:16:20;6.97;;;1.58;;
46717;SDS011;32448;44.960;-0.698;2023-01-19T00:18:49;10.27;;;1.55;;
46717;SDS011;32448;44.960;-0.698;2023-01-19T00:21:18;8.85;;;1.70;;
46717;SDS011;32448;44.960;-0.698;2023-01-19T00:23:47;12.10;;;2.08;;
46717;SDS011;32448;44.960;-0.698;2023-01-19T00:26:17;4.57;;;1.27;;
46717;SDS011;32448;44.960;-0.698;2023-01-19T00:28:44;5.45;;;1.15;;
46717;SDS011;32448;44.960;-0.698;2023-01-19T00:31:13;6.28;;;1.08;;
46717;SDS011;32448;44.960;-0.698;2023-01-19T00:33:40;3.75;;;0.98;;
46717;SDS011;32448;44.960;-0.698;2023-01-19T00:36:08;6.13;;;1.08;;
46717;SDS011;32448;44.960;-0.698;2023-01-19T00:38:35;5.97;;;1.30;;
46717;SDS011;32448;44.960;-0.698;2023-01-19T00:41:04;9.35;;;1.70;;
46717;SDS011;32448;44.960;-0.698;2023-01-19T00:43:32;5.75;;;1.27;;
46717;SDS011;32448;44.960;-0.698;2023-01-19T00:45:59;2.70;;;0.90;;
46717;SDS011;32448;44.960;-0.698;2023-01-19T00:48:27;3.15;;;1.10;;
46717;SDS011;32448;44.960;-0.698;2023-01-19T00:50:54;6.25;;;1.48;;
46717;SDS011;32448;44.960;-0.698;2023-01-19T00:53:22;5.20;;;1.50;;
46717;SDS011;32448;44.960;-0.698;2023-01-19T00:55:49;4.43;;;1.10;;
46717;SDS011;32448;44.960;-0.698;2023-01-19T00:58:16;9.10;;;1.15;;
46717;SDS011;32448;44.960;-0.698;2023-01-19T01:00:44;5.68;;;1.13;;
46717;SDS011;32448;44.960;-0.698;2023-01-19T01:03:11;5.60;;;0.80;;
46717;SDS011;32448;44.960;-0.698;2023-01-19T01:05:39;4.38;;;0.70;;
46717;SDS011;32448;44.960;-0.698;2023-01-19T01:08:08;8.63;;;1.58;;
46717;SDS011;32448;44.960;-0.698;2023-01-19T01:10:35;3.90;;;0.73;;
46717;SDS011;32448;44.960;-0.698;2023-01-19T01:13:03;3.67;;;1.17;;
46717;SDS011;32448;44.960;-0.698;2023-01-19T01:15:51;8.38;;;1.60;;
46717;SDS011;32448;44.960;-0.698;2023-01-19T01:18:20;10.52;;;1.73;;
46717;SDS011;32448;44.960;-0.698;2023-01-19T01:20:49;5.57;;;1.92;;
46717;SDS011;32448;44.960;-0.698;2023-01-19T01:23:18;4.53;;;1.25;;
46717;SDS011;32448;44.960;-0.698;2023-01-19T01:25:48;8.27;;;1.30;;
46717;SDS011;32448;44.960;-0.698;2023-01-19T01:28:16;7.32;;;2.38;;
46717;SDS011;32448;44.960;-0.698;2023-01-19T01:30:43;7.63;;;2.45;;
46717;SDS011;32448;44.960;-0.698;2023-01-19T01:33:10;8.25;;;3.00;;
46717;SDS011;32448;44.960;-0.698;2023-01-19T01:35:38;5.93;;;2.25;;
46717;SDS011;32448;44.960;-0.698;2023-01-19T01:38:06;6.05;;;1.52;;
46717;SDS011;32448;44.960;-0.698;2023-01-19T01:40:33;6.05;;;1.73;;
46717;SDS011;32448;44.960;-0.698;2023-01-19T01:43:01;5.70;;;1.88;;
46717;SDS011;32448;44.960;-0.698;2023-01-19T01:45:36;7.97;;;1.73;;
46717;SDS011;32448;44.960;-0.698;2023-01-19T01:50:46;6.15;;;2.05;;
46717;SDS011;32448;44.960;-0.698;2023-01-19T01:53:40;10.10;;;2.40;;
46717;SDS011;32448;44.960;-0.698;2023-01-19T01:56:12;16.50;;;5.32;;
46717;SDS011;32448;44.960;-0.698;2023-01-19T01:58:43;65.03;;;15.32;;
46717;SDS011;32448;44.960;-0.698;2023-01-19T02:01:11;27.92;;;6.13;;
46717;SDS011;32448;44.960;-0.698;2023-01-19T02:03:57;11.25;;;2.40;;
46717;SDS011;32448;44.960;-0.698;2023-01-19T02:06:25;14.65;;;4.60;;
46717;SDS011;32448;44.960;-0.698;2023-01-19T02:08:58;17.33;;;5.63;;
46717;SDS011;32448;44.960;-0.698;2023-01-19T02:11:48;17.17;;;3.20;;
46717;SDS011;32448;44.960;-0.698;2023-01-19T02:14:35;44.65;;;15.50;;
46717;SDS011;32448;44.960;-0.698;2023-01-19T02:17:04;27.02;;;9.55;;
46717;SDS011;32448;44.960;-0.698;2023-01-19T02:19:39;34.35;;;13.13;;
46717;SDS011;32448;44.960;-0.698;2023-01-19T02:24:46;32.13;;;13.20;;
46717;SDS011;32448;44.960;-0.698;2023-01-19T02:27:15;40.83;;;17.80;;
46717;SDS011;32448;44.960;-0.698;2023-01-19T02:29:43;45.88;;;19.98;;
46717;SDS011;32448;44.960;-0.698;2023-01-19T02:32:10;56.30;;;24.20;;
46717;SDS011;32448;44.960;-0.698;2023-01-19T02:34:38;53.75;;;22.35;;
46717;SDS011;32448;44.960;-0.698;2023-01-19T02:37:07;41.45;;;18.60;;
46717;SDS011;32448;44.960;-0.698;2023-01-19T02:44:54;29.70;;;11.80;;
46717;SDS011;32448;44.960;-0.698;2023-01-19T02:47:22;21.60;;;9.02;;
46717;SDS011;32448;44.960;-0.698;2023-01-19T02:49:57;31.55;;;14.23;;
46717;SDS011;32448;44.960;-0.698;2023-01-19T02:52:25;51.53;;;23.42;;
46717;SDS011;32448;44.960;-0.698;2023-01-19T02:55:01;67.22;;;30.80;;
46717;SDS011;32448;44.960;-0.698;2023-01-19T02:57:51;54.33;;;22.80;;
46717;SDS011;32448;44.960;-0.698;2023-01-19T03:03:18;18.73;;;7.22;;
46717;SDS011;32448;44.960;-0.698;2023-01-19T03:05:58;10.35;;;3.85;;
46717;SDS011;32448;44.960;-0.698;2023-01-19T03:11:10;5.70;;;2.30;;
46717;SDS011;32448;44.960;-0.698;2023-01-19T03:19:25;10.25;;;3.30;;
46717;SDS011;32448;44.960;-0.698;2023-01-19T03:21:57;9.65;;;3.33;;
46717;SDS011;32448;44.960;-0.698;2023-01-19T03:24:28;18.38;;;6.43;;
46717;SDS011;32448;44.960;-0.698;2023-01-19T03:27:12;43.17;;;18.38;;
46717;SDS011;32448;44.960;-0.698;2023-01-19T03:29:48;99.00;;;41.10;;
46717;SDS011;32448;44.960;-0.698;2023-01-19T03:32:20;39.23;;;15.57;;
46717;SDS011;32448;44.960;-0.698;2023-01-19T03:34:57;16.73;;;6.63;;
46717;SDS011;32448;44.960;-0.698;2023-01-19T03:37:27;26.70;;;9.80;;
46717;SDS011;32448;44.960;-0.698;2023-01-19T03:39:57;69.20;;;27.17;;
46717;SDS011;32448;44.960;-0.698;2023-01-19T03:42:25;173.25;;;73.88;;
46717;SDS011;32448;44.960;-0.698;2023-01-19T03:44:54;146.43;;;64.75;;
46717;SDS011;32448;44.960;-0.698;2023-01-19T03:47:23;114.03;;;52.40;;
46717;SDS011;32448;44.960;-0.698;2023-01-19T03:49:51;89.43;;;41.88;;
46717;SDS011;32448;44.960;-0.698;2023-01-19T03:52:30;72.40;;;36.13;;
46717;SDS011;32448;44.960;-0.698;2023-01-19T03:55:00;86.05;;;43.92;;
46717;SDS011;32448;44.960;-0.698;2023-01-19T03:57:30;69.00;;;35.33;;
46717;SDS011;32448;44.960;-0.698;2023-01-19T03:59:58;50.75;;;26.90;;
46717;SDS011;32448;44.960;-0.698;2023-01-19T04:02:25;42.70;;;22.70;;
46717;SDS011;32448;44.960;-0.698;2023-01-19T04:04:52;25.80;;;12.77;;
46717;SDS011;32448;44.960;-0.698;2023-01-19T04:07:20;22.30;;;9.02;;
46717;SDS011;32448;44.960;-0.698;2023-01-19T04:09:47;13.02;;;5.95;;
46717;SDS011;32448;44.960;-0.698;2023-01-19T04:12:14;8.43;;;3.60;;
46717;SDS011;32448;44.960;-0.698;2023-01-19T04:14:42;8.77;;;2.38;;
46717;SDS011;32448;44.960;-0.698;2023-01-19T04:17:09;9.27;;;3.40;;
46717;SDS011;32448;44.960;-0.698;2023-01-19T04:19:36;12.90;;;4.53;;
46717;SDS011;32448;44.960;-0.698;2023-01-19T04:22:03;11.27;;;3.38;;
46717;SDS011;32448;44.960;-0.698;2023-01-19T04:24:31;14.88;;;4.72;;
46717;SDS011;32448;44.960;-0.698;2023-01-19T04:26:58;10.57;;;4.85;;
46717;SDS011;32448;44.960;-0.698;2023-01-19T04:29:25;10.75;;;4.43;;
46717;SDS011;32448;44.960;-0.698;2023-01-19T04:31:53;14.00;;;5.20;;
46717;SDS011;32448;44.960;-0.698;2023-01-19T04:34:20;15.60;;;5.90;;
46717;SDS011;32448;44.960;-0.698;2023-01-19T04:36:48;18.65;;;7.38;;
46717;SDS011;32448;44.960;-0.698;2023-01-19T04:39:17;20.38;;;8.80;;
46717;SDS011;32448;44.960;-0.698;2023-01-19T04:41:44;18.52;;;7.45;;
46717;SDS011;32448;44.960;-0.698;2023-01-19T04:44:12;12.40;;;5.32;;
46717;SDS011;32448;44.960;-0.698;2023-01-19T04:46:40;11.88;;;4.80;;
46717;SDS011;32448;44.960;-0.698;2023-01-19T04:49:08;5.72;;;2.00;;
46717;SDS011;32448;44.960;-0.698;2023-01-19T04:51:36;17.38;;;3.20;;
46717;SDS011;32448;44.960;-0.698;2023-01-19T04:54:03;10.95;;;3.70;;
46717;SDS011;32448;44.960;-0.698;2023-01-19T04:56:31;9.95;;;5.28;;
46717;SDS011;32448;44.960;-0.698;2023-01-19T04:58:58;9.35;;;4.50;;
46717;SDS011;32448;44.960;-0.698;2023-01-19T05:01:26;5.78;;;2.75;;
46717;SDS011;32448;44.960;-0.698;2023-01-19T05:03:53;10.65;;;1.52;;
46717;SDS011;32448;44.960;-0.698;2023-01-19T05:06:21;10.80;;;1.30;;
46717;SDS011;32448;44.960;-0.698;2023-01-19T05:08:49;8.63;;;1.52;;
46717;SDS011;32448;44.960;-0.698;2023-01-19T05:11:16;9.30;;;1.88;;
46717;SDS011;32448;44.960;-0.698;2023-01-19T05:13:44;7.10;;;1.80;;
46717;SDS011;32448;44.960;-0.698;2023-01-19T05:16:11;5.75;;;1.58;;
46717;SDS011;32448;44.960;-0.698;2023-01-19T05:18:39;3.88;;;1.58;;
46717;SDS011;32448;44.960;-0.698;2023-01-19T05:21:06;3.53;;;1.30;;
46717;SDS011;32448;44.960;-0.698;2023-01-19T05:23:34;9.98;;;1.83;;
46717;SDS011;32448;44.960;-0.698;2023-01-19T05:26:01;3.92;;;1.20;;
46717;SDS011;32448;44.960;-0.698;2023-01-19T05:28:29;6.85;;;1.50;;
46717;SDS011;32448;44.960;-0.698;2023-01-19T05:30:57;7.68;;;2.28;;
46717;SDS011;32448;44.960;-0.698;2023-01-19T05:33:25;9.05;;;2.90;;
46717;SDS011;32448;44.960;-0.698;2023-01-19T05:35:53;5.90;;;1.75;;
46717;SDS011;32448;44.960;-0.698;2023-01-19T05:38:22;2.90;;;1.20;;
46717;SDS011;32448;44.960;-0.698;2023-01-19T05:41:00;3.65;;;1.63;;
46717;SDS011;32448;44.960;-0.698;2023-01-19T05:43:28;2.55;;;1.38;;
46717;SDS011;32448;44.960;-0.698;2023-01-19T05:45:55;6.18;;;2.90;;
46717;SDS011;32448;44.960;-0.698;2023-01-19T05:48:23;8.85;;;2.65;;
46717;SDS011;32448;44.960;-0.698;2023-01-19T05:50:50;6.28;;;2.20;;
46717;SDS011;32448;44.960;-0.698;2023-01-19T05:53:26;8.13;;;3.30;;
46717;SDS011;32448;44.960;-0.698;2023-01-19T05:55:58;6.97;;;3.03;;
46717;SDS011;32448;44.960;-0.698;2023-01-19T05:58:26;6.83;;;3.20;;
46717;SDS011;32448;44.960;-0.698;2023-01-19T06:00:54;9.70;;;3.65;;
46717;SDS011;32448;44.960;-0.698;2023-01-19T06:03:22;58.50;;;31.55;;
46717;SDS011;32448;44.960;-0.698;2023-01-19T06:05:49;61.60;;;33.38;;
46717;SDS011;32448;44.960;-0.698;2023-01-19T06:08:16;41.13;;;22.67;;
46717;SDS011;32448;44.960;-0.698;2023-01-19T06:10:44;25.65;;;14.30;;
46717;SDS011;32448;44.960;-0.698;2023-01-19T06:13:11;17.00;;;7.72;;
46717;SDS011;32448;44.960;-0.698;2023-01-19T06:15:38;13.93;;;7.80;;
46717;SDS011;32448;44.960;-0.698;2023-01-19T06:18:05;17.23;;;9.27;;
46717;SDS011;32448;44.960;-0.698;2023-01-19T06:20:33;32.65;;;16.35;;
46717;SDS011;32448;44.960;-0.698;2023-01-19T06:23:01;54.75;;;28.10;;
46717;SDS011;32448;44.960;-0.698;2023-01-19T06:25:29;59.00;;;28.65;;
46717;SDS011;32448;44.960;-0.698;2023-01-19T06:27:56;33.78;;;16.50;;
46717;SDS011;32448;44.960;-0.698;2023-01-19T06:30:23;12.20;;;5.57;;
46717;SDS011;32448;44.960;-0.698;2023-01-19T06:32:51;6.15;;;3.60;;
46717;SDS011;32448;44.960;-0.698;2023-01-19T06:35:19;7.45;;;3.38;;
46717;SDS011;32448;44.960;-0.698;2023-01-19T06:37:46;6.90;;;2.75;;
46717;SDS011;32448;44.960;-0.698;2023-01-19T06:40:14;10.05;;;3.95;;
46717;SDS011;32448;44.960;-0.698;2023-01-19T06:42:42;27.33;;;11.05;;
46717;SDS011;32448;44.960;-0.698;2023-01-19T06:45:10;43.95;;;18.08;;
46717;SDS011;32448;44.960;-0.698;2023-01-19T06:47:37;46.17;;;18.40;;
46717;SDS011;32448;44.960;-0.698;2023-01-19T06:50:04;44.67;;;18.92;;
46717;SDS011;32448;44.960;-0.698;2023-01-19T06:52:32;45.55;;;22.00;;
46717;SDS011;32448;44.960;-0.698;2023-01-19T06:55:00;19.38;;;9.80;;
46717;SDS011;32448;44.960;-0.698;2023-01-19T06:57:28;11.38;;;4.50;;
46717;SDS011;32448;44.960;-0.698;2023-01-19T06:59:55;9.82;;;3.70;;
46717;SDS011;32448;44.960;-0.698;2023-01-19T07:02:24;6.95;;;3.38;;
46717;SDS011;32448;44.960;-0.698;2023-01-19T07:04:54;7.60;;;4.10;;
46717;SDS011;32448;44.960;-0.698;2023-01-19T07:07:22;11.35;;;5.63;;
46717;SDS011;32448;44.960;-0.698;2023-01-19T07:09:49;11.85;;;5.57;;
46717;SDS011;32448;44.960;-0.698;2023-01-19T07:12:20;7.88;;;3.28;;
46717;SDS011;32448;44.960;-0.698;2023-01-19T07:14:48;10.07;;;4.15;;
46717;SDS011;32448;44.960;-0.698;2023-01-19T07:17:15;8.18;;;3.20;;
46717;SDS011;32448;44.960;-0.698;2023-01-19T07:19:43;6.50;;;2.92;;
46717;SDS011;32448;44.960;-0.698;2023-01-19T07:22:11;7.28;;;2.53;;
46717;SDS011;32448;44.960;-0.698;2023-01-19T07:24:38;8.32;;;3.22;;
46717;SDS011;32448;44.960;-0.698;2023-01-19T07:27:05;10.98;;;3.08;;
46717;SDS011;32448;44.960;-0.698;2023-01-19T07:29:33;6.13;;;2.70;;
46717;SDS011;32448;44.960;-0.698;2023-01-19T07:32:00;5.88;;;2.53;;
46717;SDS011;32448;44.960;-0.698;2023-01-19T07:34:27;8.75;;;2.90;;
46717;SDS011;32448;44.960;-0.698;2023-01-19T07:36:55;8.25;;;3.28;;
46717;SDS011;32448;44.960;-0.698;2023-01-19T07:39:23;9.50;;;3.65;;
46717;SDS011;32448;44.960;-0.698;2023-01-19T07:41:50;7.47;;;3.20;;
46717;SDS011;32448;44.960;-0.698;2023-01-19T07:44:18;9.40;;;3.28;;
46717;SDS011;32448;44.960;-0.698;2023-01-19T07:46:45;7.97;;;3.22;;
46717;SDS011;32448;44.960;-0.698;2023-01-19T07:49:12;9.90;;;4.68;;
46717;SDS011;32448;44.960;-0.698;2023-01-19T07:51:40;9.77;;;3.95;;
46717;SDS011;32448;44.960;-0.698;2023-01-19T07:54:11;11.88;;;4.97;;
46717;SDS011;32448;44.960;-0.698;2023-01-19T07:56:38;11.88;;;4.55;;
46717;SDS011;32448;44.960;-0.698;2023-01-19T07:59:08;15.75;;;6.00;;
46717;SDS011;32448;44.960;-0.698;2023-01-19T08:01:35;17.75;;;6.53;;
46717;SDS011;32448;44.960;-0.698;2023-01-19T08:04:03;17.92;;;6.88;;
46717;SDS011;32448;44.960;-0.698;2023-01-19T08:06:32;15.57;;;7.13;;
46717;SDS011;32448;44.960;-0.698;2023-01-19T08:09:01;18.52;;;8.80;;
46717;SDS011;32448;44.960;-0.698;2023-01-19T08:11:31;20.25;;;7.47;;
46717;SDS011;32448;44.960;-0.698;2023-01-19T08:13:59;19.13;;;8.10;;
46717;SDS011;32448;44.960;-0.698;2023-01-19T08:16:27;16.17;;;7.18;;
46717;SDS011;32448;44.960;-0.698;2023-01-19T08:18:54;16.33;;;7.28;;
46717;SDS011;32448;44.960;-0.698;2023-01-19T08:21:22;19.00;;;6.97;;
46717;SDS011;32448;44.960;-0.698;2023-01-19T08:23:56;15.85;;;7.07;;
46717;SDS011;32448;44.960;-0.698;2023-01-19T08:26:30;12.38;;;6.53;;
46717;SDS011;32448;44.960;-0.698;2023-01-19T08:29:00;17.80;;;6.15;;
46717;SDS011;32448;44.960;-0.698;2023-01-19T08:31:29;15.73;;;6.22;;
46717;SDS011;32448;44.960;-0.698;2023-01-19T08:33:57;14.10;;;6.00;;
46717;SDS011;32448;44.960;-0.698;2023-01-19T08:36:25;13.88;;;5.53;;
46717;SDS011;32448;44.960;-0.698;2023-01-19T08:38:53;15.43;;;5.55;;
46717;SDS011;32448;44.960;-0.698;2023-01-19T08:41:20;9.85;;;5.32;;
46717;SDS011;32448;44.960;-0.698;2023-01-19T08:43:48;12.07;;;4.82;;
46717;SDS011;32448;44.960;-0.698;2023-01-19T08:46:16;12.07;;;4.43;;
46717;SDS011;32448;44.960;-0.698;2023-01-19T08:48:49;11.32;;;5.07;;
46717;SDS011;32448;44.960;-0.698;2023-01-19T08:51:16;12.05;;;5.95;;
46717;SDS011;32448;44.960;-0.698;2023-01-19T08:53:44;13.82;;;6.40;;
46717;SDS011;32448;44.960;-0.698;2023-01-19T08:56:13;15.70;;;6.75;;
46717;SDS011;32448;44.960;-0.698;2023-01-19T08:58:41;36.88;;;13.93;;
46717;SDS011;32448;44.960;-0.698;2023-01-19T09:01:10;27.42;;;8.98;;
46717;SDS011;32448;44.960;-0.698;2023-01-19T09:03:47;36.75;;;13.45;;
46717;SDS011;32448;44.960;-0.698;2023-01-19T09:06:15;21.30;;;9.40;;
46717;SDS011;32448;44.960;-0.698;2023-01-19T09:08:45;15.40;;;5.88;;
46717;SDS011;32448;44.960;-0.698;2023-01-19T09:11:14;10.30;;;4.72;;
46717;SDS011;32448;44.960;-0.698;2023-01-19T09:13:43;11.60;;;4.40;;
46717;SDS011;32448;44.960;-0.698;2023-01-19T09:16:10;9.00;;;4.47;;
46717;SDS011;32448;44.960;-0.698;2023-01-19T09:18:39;13.68;;;5.05;;
46717;SDS011;32448;44.960;-0.698;2023-01-19T09:21:06;121.30;;;39.30;;
46717;SDS011;32448;44.960;-0.698;2023-01-19T09:23:35;79.45;;;26.67;;
46717;SDS011;32448;44.960;-0.698;2023-01-19T09:26:03;72.95;;;24.25;;
46717;SDS011;32448;44.960;-0.698;2023-01-19T09:28:32;57.47;;;19.05;;
46717;SDS011;32448;44.960;-0.698;2023-01-19T09:31:02;52.75;;;17.63;;
46717;SDS011;32448;44.960;-0.698;2023-01-19T09:33:37;44.53;;;13.48;;
46717;SDS011;32448;44.960;-0.698;2023-01-19T09:36:05;30.00;;;9.68;;
46717;SDS011;32448;44.960;-0.698;2023-01-19T09:38:32;34.97;;;11.73;;
46717;SDS011;32448;44.960;-0.698;2023-01-19T09:41:00;57.20;;;19.38;;
46717;SDS011;32448;44.960;-0.698;2023-01-19T09:46:21;29.10;;;9.73;;
46717;SDS011;32448;44.960;-0.698;2023-01-19T09:48:58;33.45;;;11.60;;
46717;SDS011;32448;44.960;-0.698;2023-01-19T09:51:35;36.25;;;13.50;;
46717;SDS011;32448;44.960;-0.698;2023-01-19T09:54:15;80.25;;;27.30;;
46717;SDS011;32448;44.960;-0.698;2023-01-19T09:56:54;56.85;;;18.73;;
46717;SDS011;32448;44.960;-0.698;2023-01-19T09:59:23;48.58;;;14.35;;
46717;SDS011;32448;44.960;-0.698;2023-01-19T10:10:11;18.30;;;6.47;;
46717;SDS011;32448;44.960;-0.698;2023-01-19T10:12:57;15.10;;;6.10;;
46717;SDS011;32448;44.960;-0.698;2023-01-19T10:15:29;14.38;;;4.90;;
46717;SDS011;32448;44.960;-0.698;2023-01-19T10:20:51;63.53;;;20.77;;
46717;SDS011;32448;44.960;-0.698;2023-01-19T10:23:39;40.60;;;15.07;;
46717;SDS011;32448;44.960;-0.698;2023-01-19T10:26:26;39.97;;;14.82;;
46717;SDS011;32448;44.960;-0.698;2023-01-19T10:29:06;92.78;;;32.08;;
46717;SDS011;32448;44.960;-0.698;2023-01-19T10:31:38;55.45;;;20.17;;
46717;SDS011;32448;44.960;-0.698;2023-01-19T10:34:12;57.53;;;19.02;;
46717;SDS011;32448;44.960;-0.698;2023-01-19T10:36:48;48.28;;;16.70;;
46717;SDS011;32448;44.960;-0.698;2023-01-19T10:39:20;19.25;;;6.15;;
46717;SDS011;32448;44.960;-0.698;2023-01-19T10:41:49;15.70;;;5.75;;
46717;SDS011;32448;44.960;-0.698;2023-01-19T10:44:23;6.80;;;2.35;;
46717;SDS011;32448;44.960;-0.698;2023-01-19T10:51:54;12.90;;;2.72;;
46717;SDS011;32448;44.960;-0.698;2023-01-19T10:54:24;12.30;;;3.60;;
46717;SDS011;32448;44.960;-0.698;2023-01-19T10:56:57;14.27;;;4.72;;
46717;SDS011;32448;44.960;-0.698;2023-01-19T10:59:46;18.02;;;5.32;;
46717;SDS011;32448;44.960;-0.698;2023-01-19T11:02:18;8.82;;;3.05;;
46717;SDS011;32448;44.960;-0.698;2023-01-19T11:04:59;5.03;;;2.03;;
46717;SDS011;32448;44.960;-0.698;2023-01-19T11:07:48;7.13;;;2.13;;
46717;SDS011;32448;44.960;-0.698;2023-01-19T11:21:09;9.48;;;3.85;;
46717;SDS011;32448;44.960;-0.698;2023-01-19T11:23:40;7.30;;;1.95;;
46717;SDS011;32448;44.960;-0.698;2023-01-19T11:26:13;6.15;;;1.80;;
46717;SDS011;32448;44.960;-0.698;2023-01-19T11:28:51;10.80;;;3.42;;
46717;SDS011;32448;44.960;-0.698;2023-01-19T11:31:30;6.00;;;1.98;;
46717;SDS011;32448;44.960;-0.698;2023-01-19T11:34:01;8.63;;;2.10;;
46717;SDS011;32448;44.960;-0.698;2023-01-19T11:36:32;35.88;;;13.55;;
46717;SDS011;32448;44.960;-0.698;2023-01-19T11:39:22;11.05;;;3.42;;
46717;SDS011;32448;44.960;-0.698;2023-01-19T11:41:54;5.75;;;1.55;;
46717;SDS011;32448;44.960;-0.698;2023-01-19T11:46:56;10.27;;;2.67;;
46717;SDS011;32448;44.960;-0.698;2023-01-19T11:49:43;8.38;;;2.10;;
46717;SDS011;32448;44.960;-0.698;2023-01-19T11:54:56;7.35;;;2.47;;
46717;SDS011;32448;44.960;-0.698;2023-01-19T11:57:47;5.57;;;2.13;;
46717;SDS011;32448;44.960;-0.698;2023-01-19T12:03:00;10.88;;;4.53;;
46717;SDS011;32448;44.960;-0.698;2023-01-19T12:05:50;11.77;;;3.85;;
46717;SDS011;32448;44.960;-0.698;2023-01-19T12:08:24;10.10;;;3.05;;
46717;SDS011;32448;44.960;-0.698;2023-01-19T12:10:56;7.95;;;3.03;;
46717;SDS011;32448;44.960;-0.698;2023-01-19T12:13:26;16.00;;;4.50;;
46717;SDS011;32448;44.960;-0.698;2023-01-19T12:16:00;5.35;;;2.05;;
46717;SDS011;32448;44.960;-0.698;2023-01-19T12:18:42;4.10;;;2.05;;
46717;SDS011;32448;44.960;-0.698;2023-01-19T12:21:13;5.15;;;1.90;;
46717;SDS011;32448;44.960;-0.698;2023-01-19T12:26:44;6.03;;;2.10;;
46717;SDS011;32448;44.960;-0.698;2023-01-19T12:29:32;5.43;;;2.08;;
46717;SDS011;32448;44.960;-0.698;2023-01-19T12:34:43;7.50;;;2.58;;
46717;SDS011;32448;44.960;-0.698;2023-01-19T12:42:45;7.13;;;2.40;;
46717;SDS011;32448;44.960;-0.698;2023-01-19T12:45:22;9.20;;;2.83;;
46717;SDS011;32448;44.960;-0.698;2023-01-19T12:50:19;6.40;;;2.63;;
46717;SDS011;32448;44.960;-0.698;2023-01-19T12:52:52;7.10;;;2.95;;
46717;SDS011;32448;44.960;-0.698;2023-01-19T12:55:29;6.80;;;2.80;;
46717;SDS011;32448;44.960;-0.698;2023-01-19T13:00:29;7.90;;;2.80;;
46717;SDS011;32448;44.960;-0.698;2023-01-19T13:03:02;4.57;;;2.40;;
46717;SDS011;32448;44.960;-0.698;2023-01-19T13:13:32;7.50;;;2.83;;
46717;SDS011;32448;44.960;-0.698;2023-01-19T13:21:28;4.82;;;2.03;;
46717;SDS011;32448;44.960;-0.698;2023-01-19T13:23:58;5.90;;;2.40;;
46717;SDS011;32448;44.960;-0.698;2023-01-19T13:26:28;6.60;;;2.40;;
46717;SDS011;32448;44.960;-0.698;2023-01-19T13:29:04;9.02;;;2.17;;
46717;SDS011;32448;44.960;-0.698;2023-01-19T13:31:36;3.65;;;1.92;;
46717;SDS011;32448;44.960;-0.698;2023-01-19T13:34:19;4.65;;;2.10;;
46717;SDS011;32448;44.960;-0.698;2023-01-19T13:36:53;4.07;;;1.92;;
46717;SDS011;32448;44.960;-0.698;2023-01-19T13:39:26;3.85;;;1.80;;
46717;SDS011;32448;44.960;-0.698;2023-01-19T13:41:57;5.65;;;1.90;;
46717;SDS011;32448;44.960;-0.698;2023-01-19T13:44:28;5.22;;;2.10;;
46717;SDS011;32448;44.960;-0.698;2023-01-19T13:47:07;7.78;;;2.10;;
46717;SDS011;32448;44.960;-0.698;2023-01-19T13:49:43;6.35;;;2.00;;
46717;SDS011;32448;44.960;-0.698;2023-01-19T13:54:49;4.43;;;2.05;;
46717;SDS011;32448;44.960;-0.698;2023-01-19T13:57:26;6.95;;;2.15;;
46717;SDS011;32448;44.960;-0.698;2023-01-19T14:00:03;6.43;;;2.03;;
46717;SDS011;32448;44.960;-0.698;2023-01-19T14:05:22;3.97;;;1.83;;
46717;SDS011;32448;44.960;-0.698;2023-01-19T14:08:02;5.38;;;2.28;;
46717;SDS011;32448;44.960;-0.698;2023-01-19T14:10:29;2.65;;;1.77;;
46717;SDS011;32448;44.960;-0.698;2023-01-19T14:13:01;4.13;;;1.60;;
46717;SDS011;32448;44.960;-0.698;2023-01-19T14:15:54;4.13;;;1.92;;
46717;SDS011;32448;44.960;-0.698;2023-01-19T14:18:28;4.32;;;2.33;;
46717;SDS011;32448;44.960;-0.698;2023-01-19T14:20:57;2.45;;;1.58;;
46717;SDS011;32448;44.960;-0.698;2023-01-19T14:23:46;4.93;;;1.83;;
46717;SDS011;32448;44.960;-0.698;2023-01-19T14:32:02;3.65;;;2.10;;
46717;SDS011;32448;44.960;-0.698;2023-01-19T14:34:37;4.15;;;1.77;;
46717;SDS011;32448;44.960;-0.698;2023-01-19T14:37:26;5.25;;;2.65;;
46717;SDS011;32448;44.960;-0.698;2023-01-19T14:40:02;5.43;;;3.03;;
46717;SDS011;32448;44.960;-0.698;2023-01-19T14:42:49;4.30;;;2.42;;
46717;SDS011;32448;44.960;-0.698;2023-01-19T14:45:20;4.40;;;2.45;;
46717;SDS011;32448;44.960;-0.698;2023-01-19T14:50:38;4.00;;;2.50;;
46717;SDS011;32448;44.960;-0.698;2023-01-19T14:53:26;4.40;;;2.00;;
46717;SDS011;32448;44.960;-0.698;2023-01-19T14:55:56;3.50;;;1.83;;
46717;SDS011;32448;44.960;-0.698;2023-01-19T14:58:26;4.00;;;2.58;;
46717;SDS011;32448;44.960;-0.698;2023-01-19T15:00:57;3.35;;;2.13;;
46717;SDS011;32448;44.960;-0.698;2023-01-19T15:03:25;3.63;;;2.00;;
46717;SDS011;32448;44.960;-0.698;2023-01-19T15:06:18;6.47;;;2.38;;
46717;SDS011;32448;44.960;-0.698;2023-01-19T15:08:47;3.10;;;1.70;;
46717;SDS011;32448;44.960;-0.698;2023-01-19T15:13:51;3.45;;;2.05;;
46717;SDS011;32448;44.960;-0.698;2023-01-19T15:16:19;3.38;;;2.38;;
46717;SDS011;32448;44.960;-0.698;2023-01-19T15:18:47;4.30;;;2.00;;
46717;SDS011;32448;44.960;-0.698;2023-01-19T15:21:15;4.00;;;2.25;;
46717;SDS011;32448;44.960;-0.698;2023-01-19T15:23:52;4.63;;;2.08;;
46717;SDS011;32448;44.960;-0.698;2023-01-19T15:26:20;3.10;;;2.17;;
46717;SDS011;32448;44.960;-0.698;2023-01-19T15:28:50;3.15;;;1.88;;
46717;SDS011;32448;44.960;-0.698;2023-01-19T15:31:18;2.25;;;1.73;;
46717;SDS011;32448;44.960;-0.698;2023-01-19T15:33:50;3.55;;;1.95;;
46717;SDS011;32448;44.960;-0.698;2023-01-19T15:36:18;5.30;;;1.63;;
46717;SDS011;32448;44.960;-0.698;2023-01-19T15:38:46;2.22;;;1.40;;
46717;SDS011;32448;44.960;-0.698;2023-01-19T15:43:51;4.60;;;1.50;;
46717;SDS011;32448;44.960;-0.698;2023-01-19T15:46:19;2.53;;;1.50;;
46717;SDS011;32448;44.960;-0.698;2023-01-19T15:48:48;5.18;;;1.85;;
46717;SDS011;32448;44.960;-0.698;2023-01-19T15:51:18;4.47;;;1.88;;
46717;SDS011;32448;44.960;-0.698;2023-01-19T15:53:47;4.05;;;1.63;;
46717;SDS011;32448;44.960;-0.698;2023-01-19T15:56:19;3.45;;;2.03;;
46717;SDS011;32448;44.960;-0.698;2023-01-19T15:58:50;2.53;;;1.90;;
46717;SDS011;32448;44.960;-0.698;2023-01-19T16:01:20;4.63;;;2.45;;
46717;SDS011;32448;44.960;-0.698;2023-01-19T16:03:49;3.95;;;2.72;;
46717;SDS011;32448;44.960;-0.698;2023-01-19T16:06:17;3.83;;;2.45;;
46717;SDS011;32448;44.960;-0.698;2023-01-19T16:08:44;3.38;;;2.47;;
46717;SDS011;32448;44.960;-0.698;2023-01-19T16:11:13;2.60;;;2.00;;
46717;SDS011;32448;44.960;-0.698;2023-01-19T16:13:45;5.85;;;1.90;;
46717;SDS011;32448;44.960;-0.698;2023-01-19T16:16:14;2.60;;;1.60;;
46717;SDS011;32448;44.960;-0.698;2023-01-19T16:18:46;2.17;;;1.60;;
46717;SDS011;32448;44.960;-0.698;2023-01-19T16:21:14;2.63;;;1.92;;
46717;SDS011;32448;44.960;-0.698;2023-01-19T16:23:41;2.38;;;1.70;;
46717;SDS011;32448;44.960;-0.698;2023-01-19T16:26:22;2.90;;;1.70;;
46717;SDS011;32448;44.960;-0.698;2023-01-19T16:28:57;3.03;;;1.80;;
46717;SDS011;32448;44.960;-0.698;2023-01-19T16:31:26;3.22;;;2.25;;
46717;SDS011;32448;44.960;-0.698;2023-01-19T16:33:54;3.10;;;2.20;;
46717;SDS011;32448;44.960;-0.698;2023-01-19T16:36:28;2.50;;;1.67;;